Time;durP1;ratioP1;P1;durP2;ratioP2;P2;SDS_P1;SDS_P2;PMS_P1;PMS_P2;Temp;Humidity;BMP_temperature;BMP_pressure;BME280_temperature;BME280_humidity;BME280_pressure;Samples;Min_cycle;Max_cycle;Signal;HPM_P1;HPM_P2
2024/01/28 00:02:28;;;;;;;8.63;3.07;;;1.40;99.90;;;;;;5078578;28;20486;-81
2024/01/28 00:04:56;;;;;;;12.87;4.07;;;1.40;99.90;;;;;;5078739;28;20830;-85
2024/01/28 00:07:23;;;;;;;7.80;2.87;;;1.30;99.90;;;;;;5078369;28;20484;-80
2024/01/28 00:09:50;;;;;;;9.93;3.77;;;1.30;99.90;;;;;;5078904;28;20473;-82
2024/01/28 00:12:17;;;;;;;12.77;4.03;;;1.30;99.90;;;;;;5075684;28;20456;-81
2024/01/28 00:14:44;;;;;;;8.90;3.57;;;1.30;99.90;;;;;;5080371;28;20496;-82
2024/01/28 00:17:11;;;;;;;6.10;3.17;;;1.40;99.90;;;;;;5077905;28;20443;-84
2024/01/28 00:19:41;;;;;;;6.47;3.70;;;1.30;99.90;;;;;;5078499;28;20526;-80
2024/01/28 00:22:09;;;;;;;6.93;2.97;;;1.30;99.90;;;;;;5079278;28;20530;-81
2024/01/28 00:24:39;;;;;;;6.83;3.83;;;1.30;99.90;;;;;;5079091;28;20453;-81
2024/01/28 00:27:05;;;;;;;6.10;3.30;;;1.10;99.90;;;;;;5074242;28;20459;-79
2024/01/28 00:29:32;;;;;;;4.60;2.60;;;1.30;99.90;;;;;;5077204;28;20524;-82
2024/01/28 00:32:00;;;;;;;9.07;3.53;;;1.20;99.90;;;;;;5077359;28;20525;-78
2024/01/28 00:34:27;;;;;;;7.67;3.10;;;1.10;99.90;;;;;;5078811;28;20460;-82
2024/01/28 00:36:54;;;;;;;9.00;3.20;;;1.10;99.90;;;;;;5078475;28;20977;-83
2024/01/28 00:39:22;;;;;;;9.50;3.77;;;1.10;99.90;;;;;;5082306;28;20459;-83
2024/01/28 00:41:51;;;;;;;6.73;2.77;;;1.10;99.90;;;;;;5079291;28;21021;-81
2024/01/28 00:44:19;;;;;;;10.63;2.97;;;1.00;99.90;;;;;;5081070;28;20426;-81
2024/01/28 00:46:46;;;;;;;6.30;2.80;;;1.00;99.90;;;;;;5080455;28;20459;-82
2024/01/28 00:49:14;;;;;;;5.20;2.70;;;0.90;99.90;;;;;;5080820;28;20449;-79
2024/01/28 00:51:41;;;;;;;7.03;3.30;;;0.90;99.90;;;;;;5082110;28;20459;-79
2024/01/28 00:54:09;;;;;;;7.53;2.93;;;0.90;99.90;;;;;;5079903;28;20508;-83
2024/01/28 00:56:40;;;;;;;8.13;3.07;;;0.80;99.90;;;;;;5075755;28;20459;-79
2024/01/28 00:59:07;;;;;;;8.30;3.63;;;0.80;99.90;;;;;;5078841;28;20484;-81
2024/01/28 01:01:33;;;;;;;7.50;3.13;;;0.80;99.90;;;;;;5078811;28;20464;-83
2024/01/28 01:04:03;;;;;;;6.30;2.83;;;0.70;99.90;;;;;;5079266;28;20853;-81
2024/01/28 01:06:29;;;;;;;6.10;3.13;;;0.70;99.90;;;;;;5078519;28;20852;-82
2024/01/28 01:08:56;;;;;;;6.37;2.20;;;0.70;99.90;;;;;;5070845;28;20512;-82
2024/01/28 01:11:23;;;;;;;6.80;2.80;;;0.70;99.90;;;;;;5077045;28;20549;-81
2024/01/28 01:13:53;;;;;;;7.00;2.63;;;0.60;99.90;;;;;;5076722;28;20994;-78
2024/01/28 01:16:19;;;;;;;8.43;2.43;;;0.60;99.90;;;;;;5075831;28;20546;-83
2024/01/28 01:18:47;;;;;;;7.57;3.67;;;0.60;99.90;;;;;;5076053;28;20479;-82
2024/01/28 01:21:14;;;;;;;6.93;3.00;;;0.50;99.90;;;;;;5074524;28;20429;-80
2024/01/28 01:23:41;;;;;;;7.50;4.03;;;0.50;99.90;;;;;;5069595;28;20463;-82
2024/01/28 01:26:08;;;;;;;6.70;2.93;;;0.40;99.90;;;;;;5079055;28;20432;-82
2024/01/28 01:28:34;;;;;;;5.33;2.47;;;0.50;99.90;;;;;;5083576;28;20478;-82
2024/01/28 01:31:04;;;;;;;5.40;3.07;;;0.40;99.90;;;;;;5078841;28;20423;-83
2024/01/28 01:33:31;;;;;;;7.37;3.33;;;0.40;99.90;;;;;;5076677;28;21002;-82
2024/01/28 01:35:58;;;;;;;6.20;2.50;;;0.40;99.90;;;;;;5083411;28;20458;-82
2024/01/28 01:38:27;;;;;;;4.73;2.60;;;0.40;99.90;;;;;;5081540;28;20452;-81
2024/01/28 01:40:53;;;;;;;5.03;2.77;;;0.40;99.90;;;;;;5077669;28;20451;-82
2024/01/28 01:43:21;;;;;;;6.80;2.97;;;0.30;99.90;;;;;;5082335;28;21005;-82
2024/01/28 01:45:49;;;;;;;5.50;2.40;;;0.30;99.90;;;;;;5075952;28;20502;-79
2024/01/28 01:48:18;;;;;;;3.50;2.30;;;0.30;99.90;;;;;;5076927;28;20538;-82
2024/01/28 01:50:45;;;;;;;5.67;2.23;;;0.30;99.90;;;;;;5076371;28;20454;-82
2024/01/28 01:53:16;;;;;;;4.97;2.43;;;0.20;99.90;;;;;;5075945;28;20475;-78
2024/01/28 01:55:43;;;;;;;4.70;2.53;;;0.30;99.90;;;;;;5076933;28;20837;-82
2024/01/28 01:58:11;;;;;;;6.50;2.50;;;0.30;99.90;;;;;;5075913;28;20501;-82
2024/01/28 02:00:41;;;;;;;8.23;2.50;;;0.20;99.90;;;;;;5075891;28;20426;-82
2024/01/28 02:03:07;;;;;;;3.20;1.80;;;0.20;99.90;;;;;;5073427;28;20895;-81
2024/01/28 02:05:37;;;;;;;5.93;2.57;;;0.20;99.90;;;;;;5074990;28;20460;-82
2024/01/28 02:08:04;;;;;;;11.40;3.37;;;0.20;99.90;;;;;;5075805;28;20506;-82
2024/01/28 02:10:31;;;;;;;4.05;2.30;;;0.20;99.90;;;;;;5072351;28;20514;-82
2024/01/28 02:12:58;;;;;;;6.73;2.10;;;0.20;99.90;;;;;;5070937;28;20222;-82
2024/01/28 02:15:27;;;;;;;4.93;2.23;;;0.20;99.90;;;;;;5075168;28;20892;-82
2024/01/28 02:17:55;;;;;;;8.30;1.90;;;0.20;99.90;;;;;;5074704;28;20531;-82
2024/01/28 02:20:22;;;;;;;3.57;2.07;;;0.20;99.90;;;;;;5076029;28;20455;-82
2024/01/28 02:22:52;;;;;;;4.17;2.63;;;0.20;99.90;;;;;;5074592;28;20482;-80
2024/01/28 02:25:21;;;;;;;5.10;2.47;;;0.20;99.90;;;;;;5075315;28;20414;-82
2024/01/28 02:27:47;;;;;;;7.23;2.67;;;0.20;99.90;;;;;;5075594;28;20467;-83
2024/01/28 02:30:15;;;;;;;7.90;3.07;;;0.20;99.90;;;;;;5075079;28;21031;-81
2024/01/28 02:32:48;;;;;;;5.27;1.93;;;0.20;99.90;;;;;;5071521;28;20851;-82
2024/01/28 02:35:19;;;;;;;7.77;2.67;;;0.20;99.90;;;;;;5075299;28;20437;-79
2024/01/28 02:37:47;;;;;;;3.37;2.13;;;0.20;99.90;;;;;;5075233;28;20453;-81
2024/01/28 02:40:14;;;;;;;5.37;2.70;;;0.20;99.90;;;;;;5074617;28;20463;-82
2024/01/28 02:42:43;;;;;;;4.90;2.30;;;0.20;99.90;;;;;;5075253;28;21126;-82
2024/01/28 02:45:10;;;;;;;6.80;2.30;;;0.20;99.90;;;;;;5074870;28;20433;-82
2024/01/28 02:47:39;;;;;;;3.07;2.00;;;0.20;99.90;;;;;;5068198;28;20487;-81
2024/01/28 02:50:07;;;;;;;6.73;2.13;;;0.20;99.90;;;;;;5074499;28;20526;-83
2024/01/28 02:52:34;;;;;;;3.57;1.80;;;0.20;99.90;;;;;;5066801;28;20452;-82
2024/01/28 02:55:03;;;;;;;3.97;2.27;;;0.20;99.90;;;;;;5074093;28;20521;-81
2024/01/28 02:57:30;;;;;;;3.77;1.67;;;0.20;99.90;;;;;;5073757;28;20477;-83
2024/01/28 02:59:59;;;;;;;4.80;2.10;;;0.20;99.90;;;;;;5074469;28;20512;-82
2024/01/28 03:02:28;;;;;;;3.10;1.87;;;0.20;99.90;;;;;;5069868;28;21165;-81
2024/01/28 03:04:55;;;;;;;3.43;2.37;;;0.20;99.90;;;;;;5073972;28;20429;-83
2024/01/28 03:07:23;;;;;;;8.03;3.50;;;0.30;99.90;;;;;;5073561;28;20485;-82
2024/01/28 03:09:49;;;;;;;5.57;2.50;;;0.30;99.90;;;;;;5074223;28;20431;-82
2024/01/28 03:12:16;;;;;;;8.10;2.67;;;0.30;99.90;;;;;;5074405;28;20481;-80
2024/01/28 03:14:43;;;;;;;5.73;2.43;;;0.30;99.90;;;;;;5074222;28;20435;-81
2024/01/28 03:17:11;;;;;;;6.23;2.20;;;0.40;99.90;;;;;;5067269;28;20442;-82
2024/01/28 03:19:41;;;;;;;5.70;2.60;;;0.40;99.90;;;;;;5074342;28;20437;-77
2024/01/28 03:22:08;;;;;;;5.63;2.37;;;0.40;99.90;;;;;;5074631;28;20915;-82
2024/01/28 03:24:34;;;;;;;9.38;2.72;;;0.30;99.90;;;;;;5074795;28;20433;-82
2024/01/28 03:27:05;;;;;;;5.60;1.97;;;0.40;99.90;;;;;;5069695;28;20200;-81
2024/01/28 03:29:31;;;;;;;7.93;2.30;;;0.40;99.90;;;;;;5075009;28;20575;-81
2024/01/28 03:31:59;;;;;;;8.95;1.80;;;0.40;99.90;;;;;;5073418;28;20212;-78
2024/01/28 03:34:27;;;;;;;5.77;2.50;;;0.40;99.90;;;;;;5075033;28;20212;-81
2024/01/28 03:36:54;;;;;;;3.03;2.10;;;0.30;99.90;;;;;;5075489;28;20476;-81
2024/01/28 03:39:20;;;;;;;9.20;2.67;;;0.30;99.90;;;;;;5076376;28;20432;-82
2024/01/28 03:41:47;;;;;;;6.90;2.10;;;0.30;99.90;;;;;;5075413;28;20443;-80
2024/01/28 03:44:22;;;;;;;5.60;2.00;;;0.20;99.90;;;;;;5075980;28;20577;-77
2024/01/28 03:46:49;;;;;;;6.30;1.90;;;0.20;99.90;;;;;;5075132;28;20952;-82
2024/01/28 03:49:19;;;;;;;4.93;2.13;;;0.20;99.90;;;;;;5082432;28;20470;-80
2024/01/28 03:51:47;;;;;;;5.97;1.90;;;0.20;99.90;;;;;;5085922;28;20501;-81
2024/01/28 03:54:17;;;;;;;10.53;2.63;;;0.20;99.90;;;;;;5084758;28;20287;-79
2024/01/28 03:56:44;;;;;;;4.23;1.83;;;0.10;99.90;;;;;;5085031;28;20497;-82
2024/01/28 03:59:11;;;;;;;10.53;2.40;;;0.10;99.90;;;;;;5080192;28;20553;-82
2024/01/28 04:01:41;;;;;;;4.40;1.97;;;0.10;99.90;;;;;;5086034;28;20522;-80
2024/01/28 04:04:08;;;;;;;4.10;2.13;;;0.00;99.90;;;;;;5078102;28;21313;-81
2024/01/28 04:06:34;;;;;;;4.13;2.30;;;0.00;99.90;;;;;;5077915;28;20463;-82
2024/01/28 04:09:05;;;;;;;3.20;1.75;;;0.00;99.90;;;;;;5068941;28;20550;-82
2024/01/28 04:11:32;;;;;;;3.20;2.20;;;0.10;99.90;;;;;;5069676;28;20205;-82
2024/01/28 04:14:02;;;;;;;5.32;1.85;;;0.00;99.90;;;;;;5077133;28;20450;-82
2024/01/28 04:16:29;;;;;;;4.07;2.03;;;0.00;99.90;;;;;;5067588;28;20214;-82
2024/01/28 04:18:56;;;;;;;5.40;2.53;;;0.00;99.90;;;;;;5077388;28;20449;-82
2024/01/28 04:21:26;;;;;;;7.23;2.30;;;0.00;99.90;;;;;;5076879;28;20445;-83
2024/01/28 04:23:53;;;;;;;9.17;2.90;;;-0.10;99.90;;;;;;5077679;28;20552;-81
2024/01/28 04:26:22;;;;;;;3.40;1.80;;;-0.10;99.90;;;;;;5076642;28;20422;-84
2024/01/28 04:28:48;;;;;;;3.17;1.60;;;-0.10;99.90;;;;;;5076966;28;20483;-80
2024/01/28 04:31:16;;;;;;;6.30;3.13;;;-0.10;99.90;;;;;;5071590;28;20488;-81
2024/01/28 04:33:43;;;;;;;7.03;2.07;;;-0.10;99.90;;;;;;5083595;28;20943;-82
2024/01/28 04:36:10;;;;;;;3.10;1.87;;;-0.10;99.90;;;;;;5081798;28;20461;-81
2024/01/28 04:38:37;;;;;;;4.40;1.80;;;-0.10;99.90;;;;;;5084329;28;20476;-79
2024/01/28 04:41:04;;;;;;;4.93;2.40;;;-0.20;99.90;;;;;;5086263;28;20211;-82
2024/01/28 04:43:32;;;;;;;3.73;2.13;;;-0.20;99.90;;;;;;5078328;28;20493;-80
2024/01/28 04:45:59;;;;;;;10.67;2.30;;;-0.20;99.90;;;;;;5076970;28;20433;-81
2024/01/28 04:48:26;;;;;;;7.30;2.40;;;-0.20;99.90;;;;;;5076020;28;20452;-80
2024/01/28 04:50:52;;;;;;;10.67;2.53;;;-0.30;99.90;;;;;;5076599;28;20508;-82
2024/01/28 04:53:19;;;;;;;6.03;2.53;;;-0.20;99.90;;;;;;5075942;28;20502;-82
2024/01/28 04:55:46;;;;;;;6.07;2.30;;;-0.20;99.90;;;;;;5075344;28;20790;-82
2024/01/28 04:58:13;;;;;;;3.50;1.97;;;-0.30;99.90;;;;;;5076154;28;20485;-80
2024/01/28 05:00:41;;;;;;;5.33;2.40;;;-0.30;99.90;;;;;;5076455;28;20533;-82
2024/01/28 05:03:08;;;;;;;6.47;2.43;;;-0.30;99.90;;;;;;5074640;28;20493;-82
2024/01/28 05:05:35;;;;;;;4.70;1.60;;;-0.40;99.90;;;;;;5075885;28;20441;-81
2024/01/28 05:08:03;;;;;;;6.18;2.40;;;-0.30;99.90;;;;;;5076847;28;20282;-80
2024/01/28 05:10:30;;;;;;;7.83;2.10;;;-0.30;99.90;;;;;;5077103;28;20276;-82
2024/01/28 05:12:57;;;;;;;6.93;2.20;;;-0.30;99.90;;;;;;5074217;28;20528;-83
2024/01/28 05:15:23;;;;;;;7.95;2.97;;;-0.30;99.90;;;;;;5075440;28;20440;-80
2024/01/28 05:17:51;;;;;;;3.20;1.97;;;-0.30;99.90;;;;;;5076538;28;20226;-80
2024/01/28 05:20:18;;;;;;;4.30;2.50;;;-0.30;99.90;;;;;;5078376;28;20432;-82
2024/01/28 05:22:45;;;;;;;7.60;2.73;;;-0.30;99.90;;;;;;5077298;28;20831;-83
2024/01/28 05:25:13;;;;;;;8.95;2.90;;;-0.30;99.90;;;;;;5076960;28;20455;-79
2024/01/28 05:27:40;;;;;;;14.03;3.60;;;-0.30;99.90;;;;;;5077018;28;20216;-77
2024/01/28 05:30:09;;;;;;;8.80;3.47;;;-0.30;99.90;;;;;;5074929;28;20458;-82
2024/01/28 05:32:38;;;;;;;7.22;3.67;;;-0.30;99.90;;;;;;5075264;28;20474;-80
2024/01/28 05:35:07;;;;;;;9.48;3.78;;;-0.30;99.90;;;;;;5075025;28;20219;-81
2024/01/28 05:37:36;;;;;;;6.57;3.70;;;-0.30;99.90;;;;;;5076713;28;20311;-82
2024/01/28 05:40:08;;;;;;;4.57;2.70;;;-0.30;99.90;;;;;;5076934;28;20212;-77
2024/01/28 05:42:35;;;;;;;6.82;4.38;;;-0.30;99.90;;;;;;5076423;28;20461;-82
2024/01/28 05:45:02;;;;;;;6.43;3.63;;;-0.30;99.90;;;;;;5076169;28;20212;-81
2024/01/28 05:47:28;;;;;;;5.03;3.40;;;-0.30;99.90;;;;;;5081878;28;20453;-81
2024/01/28 05:49:55;;;;;;;6.53;3.77;;;-0.30;99.90;;;;;;5082884;28;20530;-82
2024/01/28 05:52:24;;;;;;;10.30;3.97;;;-0.30;99.90;;;;;;5080310;28;20461;-82
2024/01/28 05:54:54;;;;;;;7.13;3.23;;;-0.30;99.90;;;;;;5076517;28;20422;-77
2024/01/28 05:57:19;;;;;;;5.90;3.30;;;-0.30;99.90;;;;;;5080328;28;20461;-82
2024/01/28 05:59:46;;;;;;;8.70;3.43;;;-0.30;99.90;;;;;;5078307;28;20306;-82
2024/01/28 06:02:16;;;;;;;4.27;3.53;;;-0.30;99.90;;;;;;5078847;28;20232;-81
2024/01/28 06:04:43;;;;;;;11.13;3.60;;;-0.30;99.90;;;;;;5078710;28;20520;-79
2024/01/28 06:07:10;;;;;;;9.43;3.67;;;-0.30;99.90;;;;;;5079352;28;20433;-82
2024/01/28 06:09:40;;;;;;;7.53;2.77;;;-0.30;99.90;;;;;;5081200;28;20464;-80
2024/01/28 06:12:07;;;;;;;12.13;3.50;;;-0.30;99.90;;;;;;5082020;28;20435;-82
2024/01/28 06:14:34;;;;;;;5.97;3.00;;;-0.40;99.90;;;;;;5078349;28;20455;-83
2024/01/28 06:17:05;;;;;;;6.43;3.20;;;-0.40;99.90;;;;;;5079851;28;20208;-81
2024/01/28 06:19:32;;;;;;;8.80;4.03;;;-0.40;99.90;;;;;;5079336;28;20448;-81
2024/01/28 06:22:03;;;;;;;7.10;3.97;;;-0.40;99.90;;;;;;5079417;28;20557;-78
2024/01/28 06:24:30;;;;;;;4.87;2.57;;;-0.40;99.90;;;;;;5072735;28;20548;-83
2024/01/28 06:27:03;;;;;;;5.90;2.93;;;-0.40;99.90;;;;;;5082112;28;20534;-81
2024/01/28 06:29:29;;;;;;;4.75;2.63;;;-0.40;99.90;;;;;;5081987;28;20949;-82
2024/01/28 06:31:58;;;;;;;9.23;3.50;;;-0.40;99.90;;;;;;5079562;28;20214;-80
2024/01/28 06:34:25;;;;;;;8.75;3.75;;;-0.40;99.90;;;;;;5081939;28;20425;-81
2024/01/28 06:36:55;;;;;;;4.00;2.80;;;-0.50;99.90;;;;;;5073369;28;20209;-83
2024/01/28 06:39:22;;;;;;;7.95;3.17;;;-0.50;99.90;;;;;;5075869;28;20456;-83
2024/01/28 06:41:50;;;;;;;5.95;3.55;;;-0.50;99.90;;;;;;5076678;28;20209;-81
2024/01/28 06:44:18;;;;;;;6.20;3.67;;;-0.50;99.90;;;;;;5077907;28;20234;-83
2024/01/28 06:46:44;;;;;;;6.55;4.30;;;-0.50;99.90;;;;;;5078164;28;20211;-82
2024/01/28 06:49:12;;;;;;;8.77;3.40;;;-0.50;99.90;;;;;;5079829;28;20602;-81
2024/01/28 06:51:43;;;;;;;5.95;3.58;;;-0.50;99.90;;;;;;5079040;28;20433;-81
2024/01/28 06:54:11;;;;;;;5.50;2.87;;;-0.50;99.90;;;;;;5081738;28;20287;-81
2024/01/28 06:56:37;;;;;;;10.25;3.50;;;-0.50;99.90;;;;;;5081314;28;20465;-81
2024/01/28 06:59:04;;;;;;;8.93;3.83;;;-0.50;99.90;;;;;;5078589;28;20344;-80
2024/01/28 07:01:32;;;;;;;6.43;3.80;;;-0.50;99.90;;;;;;5071703;28;20421;-82
2024/01/28 07:03:59;;;;;;;6.20;3.30;;;-0.50;99.90;;;;;;5070433;28;20474;-79
2024/01/28 07:06:29;;;;;;;6.40;3.08;;;-0.50;99.90;;;;;;5069765;28;20422;-80
2024/01/28 07:08:56;;;;;;;10.77;3.50;;;-0.50;99.90;;;;;;5065178;28;20235;-83
2024/01/28 07:11:23;;;;;;;8.20;3.80;;;-0.50;99.90;;;;;;5067035;28;21041;-80
2024/01/28 07:13:50;;;;;;;8.73;4.00;;;-0.50;99.90;;;;;;5066128;28;20841;-82
2024/01/28 07:16:16;;;;;;;4.77;3.43;;;0.10;99.90;;;;;;5068524;28;20528;-84
2024/01/28 07:18:45;;;;;;;12.27;3.67;;;-0.50;99.90;;;;;;5069624;28;20546;-83
2024/01/28 07:21:12;;;;;;;9.70;4.20;;;-0.50;99.90;;;;;;5067119;28;20513;-81
2024/01/28 07:23:40;;;;;;;6.18;3.63;;;-0.60;99.90;;;;;;5070469;28;20527;-82
2024/01/28 07:26:08;;;;;;;8.68;3.78;;;-0.50;99.90;;;;;;5065932;28;20719;-82
2024/01/28 07:28:35;;;;;;;7.40;3.70;;;-0.50;99.90;;;;;;5070425;28;20287;-83
2024/01/28 07:31:01;;;;;;;4.45;3.00;;;-0.50;99.90;;;;;;5073488;28;20279;-82
2024/01/28 07:33:28;;;;;;;6.13;3.07;;;-0.50;99.90;;;;;;5075064;28;20220;-83
2024/01/28 07:35:57;;;;;;;7.77;3.67;;;-0.40;99.90;;;;;;5072584;28;20452;-83
2024/01/28 07:38:24;;;;;;;6.67;3.73;;;-0.40;99.90;;;;;;5079513;28;20560;-83
2024/01/28 07:40:51;;;;;;;4.83;2.90;;;-0.40;99.90;;;;;;5072185;28;20437;-82
2024/01/28 07:43:17;;;;;;;7.10;3.08;;;-0.40;99.90;;;;;;5076386;28;20432;-83
2024/01/28 07:45:45;;;;;;;6.80;3.70;;;-0.40;99.90;;;;;;5070607;28;20642;-83
2024/01/28 07:48:12;;;;;;;4.50;2.90;;;-0.40;99.90;;;;;;5077942;28;20232;-80
2024/01/28 07:50:38;;;;;;;7.47;3.03;;;0.00;99.90;;;;;;5072480;28;20425;-82
2024/01/28 07:53:07;;;;;;;3.90;2.23;;;-0.40;99.90;;;;;;5077839;28;20736;-82
2024/01/28 07:55:33;;;;;;;6.70;3.85;;;-0.30;99.90;;;;;;5074170;28;20471;-83
2024/01/28 07:58:00;;;;;;;7.03;3.50;;;-0.20;99.90;;;;;;5083340;28;20256;-79
2024/01/28 08:00:28;;;;;;;6.60;3.30;;;-0.20;99.90;;;;;;5082753;28;20490;-81
2024/01/28 08:02:55;;;;;;;5.47;3.03;;;-0.20;99.90;;;;;;5086865;28;20792;-80
2024/01/28 08:05:22;;;;;;;5.93;3.45;;;-0.10;99.90;;;;;;5081010;28;20582;-82
2024/01/28 08:07:49;;;;;;;4.77;3.10;;;-0.10;99.90;;;;;;5071364;28;20228;-81
2024/01/28 08:10:17;;;;;;;7.90;3.70;;;-0.10;99.90;;;;;;5077136;28;20443;-83
2024/01/28 08:12:44;;;;;;;5.57;3.00;;;0.00;99.90;;;;;;5072408;28;20539;-82
2024/01/28 08:15:11;;;;;;;7.13;4.00;;;0.00;99.90;;;;;;5069659;28;20441;-83
2024/01/28 08:17:37;;;;;;;7.20;3.10;;;0.10;99.90;;;;;;5075332;28;21071;-82
2024/01/28 08:20:05;;;;;;;8.68;2.83;;;0.10;99.90;;;;;;5069118;28;20461;-83
2024/01/28 08:22:32;;;;;;;8.00;3.57;;;0.10;99.90;;;;;;5079704;28;20241;-83
2024/01/28 08:24:59;;;;;;;5.80;3.00;;;0.10;99.90;;;;;;5070514;28;21038;-83
2024/01/28 08:27:28;;;;;;;4.90;2.90;;;0.20;99.90;;;;;;5077750;28;20898;-81
2024/01/28 08:29:55;;;;;;;7.33;3.23;;;0.20;99.90;;;;;;5078203;28;20491;-82
2024/01/28 08:32:22;;;;;;;7.73;3.33;;;0.20;99.90;;;;;;5079036;28;20454;-82
2024/01/28 08:34:51;;;;;;;4.70;3.13;;;0.30;99.90;;;;;;5078989;28;20542;-83
2024/01/28 08:37:18;;;;;;;4.53;3.00;;;0.30;99.90;;;;;;5079087;28;20485;-83
2024/01/28 08:39:45;;;;;;;6.37;3.57;;;0.30;99.90;;;;;;5079732;28;20517;-82
2024/01/28 08:42:12;;;;;;;6.93;3.40;;;0.40;99.90;;;;;;5080897;28;20461;-81
2024/01/28 08:44:42;;;;;;;4.30;3.20;;;0.50;99.90;;;;;;5080547;28;20469;-82
2024/01/28 08:47:08;;;;;;;8.60;4.03;;;0.50;99.90;;;;;;5077431;28;20531;-84
2024/01/28 08:49:35;;;;;;;4.83;3.60;;;0.50;99.90;;;;;;5073594;28;20530;-81
2024/01/28 08:52:02;;;;;;;7.43;3.37;;;0.60;99.90;;;;;;5078443;28;20426;-82
2024/01/28 08:54:30;;;;;;;6.80;3.60;;;0.60;99.90;;;;;;5078449;28;20454;-82
2024/01/28 08:56:57;;;;;;;6.53;3.67;;;0.70;99.90;;;;;;5079661;28;20459;-82
2024/01/28 08:59:23;;;;;;;5.90;3.47;;;0.80;99.90;;;;;;5078031;28;20519;-80
2024/01/28 09:01:52;;;;;;;5.30;3.60;;;0.80;99.90;;;;;;5075095;28;20456;-83
2024/01/28 09:04:18;;;;;;;6.50;3.20;;;0.90;99.90;;;;;;5081726;28;20547;-83
2024/01/28 09:06:45;;;;;;;7.70;3.77;;;1.00;99.90;;;;;;5072817;28;20545;-82
2024/01/28 09:09:12;;;;;;;6.27;3.50;;;1.00;99.90;;;;;;5067384;28;20478;-82
2024/01/28 09:11:39;;;;;;;5.97;3.17;;;1.10;99.90;;;;;;5076846;28;20512;-83
2024/01/28 09:14:06;;;;;;;7.87;4.27;;;1.20;99.90;;;;;;5070864;28;20453;-83
2024/01/28 09:16:33;;;;;;;6.60;3.83;;;1.30;99.90;;;;;;5065197;28;20479;-82
2024/01/28 09:19:03;;;;;;;8.67;5.10;;;1.40;99.90;;;;;;5064692;28;20558;-81
2024/01/28 09:21:30;;;;;;;7.97;4.70;;;1.40;99.90;;;;;;5065329;28;20531;-83
2024/01/28 09:23:57;;;;;;;9.00;4.87;;;1.50;99.90;;;;;;5074264;28;20864;-82
2024/01/28 09:26:24;;;;;;;4.20;3.07;;;1.60;99.90;;;;;;5077472;28;20471;-83
2024/01/28 09:28:52;;;;;;;4.37;3.20;;;1.70;99.90;;;;;;5068197;28;20485;-83
2024/01/28 09:31:18;;;;;;;5.30;3.00;;;1.80;99.90;;;;;;5069766;28;20541;-83
2024/01/28 09:33:45;;;;;;;7.40;2.43;;;1.80;99.90;;;;;;5069477;28;20535;-83
2024/01/28 09:36:13;;;;;;;3.90;2.93;;;1.90;99.90;;;;;;5071644;28;20534;-81
2024/01/28 09:38:40;;;;;;;6.13;2.90;;;2.00;99.90;;;;;;5066707;28;20547;-82
2024/01/28 09:41:17;;;;;;;6.03;2.90;;;2.20;99.90;;;;;;5074556;28;20449;-83
2024/01/28 09:43:44;;;;;;;3.17;2.17;;;2.30;99.90;;;;;;5078876;28;20515;-83
2024/01/28 09:46:12;;;;;;;3.77;2.50;;;2.30;99.90;;;;;;5080103;28;21002;-82
2024/01/28 09:48:39;;;;;;;3.17;1.60;;;2.40;99.90;;;;;;5074812;28;20483;-83
2024/01/28 09:51:08;;;;;;;3.10;1.70;;;2.60;99.90;;;;;;5065961;28;20451;-82
2024/01/28 09:53:36;;;;;;;4.40;1.80;;;2.70;99.90;;;;;;5075660;28;20454;-80
2024/01/28 09:56:05;;;;;;;3.80;1.80;;;2.70;99.90;;;;;;5075092;28;20458;-82
2024/01/28 09:58:32;;;;;;;4.00;2.20;;;2.80;99.90;;;;;;5071678;28;20511;-83
2024/01/28 10:01:02;;;;;;;3.57;2.40;;;2.90;99.90;;;;;;5067187;28;20452;-82
2024/01/28 10:03:29;;;;;;;5.27;1.80;;;3.00;99.90;;;;;;5073105;28;20868;-83
2024/01/28 10:05:56;;;;;;;3.60;2.20;;;3.00;99.90;;;;;;5073479;28;20917;-82
2024/01/28 10:08:26;;;;;;;5.83;2.93;;;3.10;99.90;;;;;;5074342;28;20494;-82
2024/01/28 10:10:55;;;;;;;6.70;1.73;;;3.20;99.90;;;;;;5071032;28;20450;-80
2024/01/28 10:13:22;;;;;;;3.40;1.77;;;3.30;99.90;;;;;;5074237;28;20444;-82
2024/01/28 10:15:55;;;;;;;3.70;1.60;;;3.40;99.90;;;;;;5073567;28;20460;-82
2024/01/28 10:18:23;;;;;;;3.53;1.50;;;3.40;99.90;;;;;;5074561;28;20475;-83
2024/01/28 10:20:50;;;;;;;2.67;1.70;;;3.50;99.90;;;;;;5068236;28;20845;-82
2024/01/28 10:23:17;;;;;;;3.30;1.93;;;3.60;99.90;;;;;;5072165;28;20805;-82
2024/01/28 10:25:44;;;;;;;2.50;1.50;;;3.80;99.90;;;;;;5073315;28;20492;-82
2024/01/28 10:28:13;;;;;;;4.40;1.63;;;4.10;99.90;;;;;;5073480;28;20469;-81
2024/01/28 10:30:40;;;;;;;3.30;1.60;;;4.30;99.90;;;;;;5073341;28;20924;-82
2024/01/28 10:33:08;;;;;;;6.17;1.93;;;4.60;99.90;;;;;;5073633;28;20455;-82
2024/01/28 10:35:35;;;;;;;2.80;1.77;;;4.70;99.90;;;;;;5072580;28;20449;-81
2024/01/28 10:38:04;;;;;;;5.77;1.47;;;4.90;99.90;;;;;;5072802;28;20484;-81
2024/01/28 10:40:34;;;;;;;3.70;1.23;;;5.10;99.90;;;;;;5073337;28;20448;-82
2024/01/28 10:43:03;;;;;;;3.10;1.43;;;5.30;99.90;;;;;;5070137;28;20443;-81
2024/01/28 10:45:31;;;;;;;2.47;1.30;;;5.50;99.90;;;;;;5058662;28;20490;-83
2024/01/28 10:48:06;;;;;;;3.40;1.53;;;5.70;99.90;;;;;;5065805;28;20479;-82
2024/01/28 10:50:34;;;;;;;1.87;1.10;;;6.20;99.90;;;;;;5071393;28;20470;-82
2024/01/28 10:53:04;;;;;;;2.87;1.50;;;6.70;99.90;;;;;;5070493;28;20454;-81
2024/01/28 10:55:32;;;;;;;3.57;1.60;;;6.90;99.90;;;;;;5066010;28;20981;-83
2024/01/28 10:58:00;;;;;;;2.23;1.20;;;7.30;99.90;;;;;;5071310;28;20485;-83
2024/01/28 11:00:28;;;;;;;4.70;1.93;;;7.70;99.90;;;;;;5075259;28;20534;-82
2024/01/28 11:02:58;;;;;;;5.30;1.70;;;8.40;99.90;;;;;;5073594;28;20512;-82
2024/01/28 11:05:27;;;;;;;4.40;1.60;;;9.30;99.10;;;;;;5074573;28;20517;-81
2024/01/28 11:07:59;;;;;;;2.30;1.20;;;9.70;99.90;;;;;;5080305;28;20850;-83
2024/01/28 11:10:27;;;;;;;2.60;1.03;;;9.80;96.10;;;;;;5077690;28;20454;-82
2024/01/28 11:12:56;;;;;;;3.80;1.70;;;9.90;92.10;;;;;;5078898;28;20526;-82
2024/01/28 11:15:23;;;;;;;4.50;1.33;;;10.00;93.50;;;;;;5077749;28;20454;-83
2024/01/28 11:17:51;;;;;;;3.00;1.57;;;10.20;92.90;;;;;;5076716;28;20474;-82
2024/01/28 11:20:27;;;;;;;4.87;1.37;;;10.30;93.20;;;;;;5077411;28;20458;-82
2024/01/28 11:22:56;;;;;;;4.17;1.70;;;10.30;90.80;;;;;;5079294;28;20466;-82
2024/01/28 11:25:25;;;;;;;2.43;1.27;;;10.70;91.10;;;;;;5071399;28;20491;-82
2024/01/28 11:27:53;;;;;;;5.00;1.47;;;11.30;94.40;;;;;;5076734;28;20471;-79
2024/01/28 11:30:21;;;;;;;2.73;1.27;;;11.70;92.00;;;;;;5076988;28;20539;-83
2024/01/28 11:32:49;;;;;;;2.90;1.20;;;12.20;89.00;;;;;;5071297;28;20474;-82
2024/01/28 11:35:16;;;;;;;2.73;1.17;;;12.90;84.00;;;;;;5071113;28;20557;-82
2024/01/28 11:37:52;;;;;;;2.37;1.10;;;14.30;89.70;;;;;;5068241;28;21128;-83
2024/01/28 11:40:23;;;;;;;2.43;1.40;;;17.00;80.10;;;;;;5074087;28;20525;-80
2024/01/28 11:42:52;;;;;;;4.87;1.70;;;19.40;78.10;;;;;;5068221;28;20457;-81
2024/01/28 11:45:19;;;;;;;2.20;1.27;;;21.50;62.40;;;;;;5076400;28;20486;-81
2024/01/28 11:47:47;;;;;;;2.83;1.33;;;22.30;56.80;;;;;;5072178;28;20483;-81
2024/01/28 11:50:13;;;;;;;3.30;1.27;;;23.80;55.90;;;;;;5067733;28;20519;-81
2024/01/28 11:52:40;;;;;;;2.13;1.20;;;24.90;51.70;;;;;;5061828;28;20542;-81
2024/01/28 11:55:13;;;;;;;2.40;1.80;;;25.40;50.70;;;;;;5070907;28;20457;-81
2024/01/28 11:57:41;;;;;;;2.30;1.40;;;26.30;49.50;;;;;;5078808;28;20499;-81
2024/01/28 12:00:10;;;;;;;2.00;1.20;;;27.10;50.70;;;;;;5074371;28;20454;-81
2024/01/28 12:02:37;;;;;;;2.37;1.57;;;28.50;50.30;;;;;;5076434;28;20455;-81
2024/01/28 12:05:05;;;;;;;2.47;1.40;;;29.60;49.40;;;;;;5078791;28;20550;-80
2024/01/28 12:07:32;;;;;;;3.70;1.60;;;29.70;46.90;;;;;;5071045;28;20562;-81
2024/01/28 12:10:00;;;;;;;1.80;1.10;;;30.10;47.60;;;;;;5078115;28;20447;-81
2024/01/28 12:12:28;;;;;;;3.33;1.70;;;30.20;43.60;;;;;;5078677;28;20461;-81
2024/01/28 12:14:58;;;;;;;2.50;1.30;;;30.30;42.00;;;;;;5075013;28;20574;-80
2024/01/28 12:17:25;;;;;;;2.67;1.33;;;29.90;42.50;;;;;;5068835;28;20546;-80
2024/01/28 12:19:54;;;;;;;2.57;1.20;;;30.40;41.50;;;;;;5077666;28;20922;-81
2024/01/28 12:22:20;;;;;;;2.80;1.50;;;31.20;42.30;;;;;;5076912;28;20461;-82
2024/01/28 12:24:47;;;;;;;2.07;1.20;;;31.40;40.90;;;;;;5079857;28;20958;-82
2024/01/28 12:27:14;;;;;;;2.50;1.20;;;31.20;41.20;;;;;;5070224;28;20526;-82
2024/01/28 12:29:43;;;;;;;4.73;1.47;;;31.50;42.70;;;;;;5071359;28;20459;-81
2024/01/28 12:32:10;;;;;;;2.00;1.30;;;31.80;40.80;;;;;;5070605;28;20529;-82
2024/01/28 12:34:37;;;;;;;2.20;1.60;;;31.10;38.90;;;;;;5078258;28;20546;-82
2024/01/28 12:37:04;;;;;;;2.60;1.57;;;29.40;38.80;;;;;;5076851;28;20457;-82
2024/01/28 12:39:31;;;;;;;2.77;1.43;;;27.20;40.40;;;;;;5079109;28;20562;-82
2024/01/28 12:41:58;;;;;;;3.00;1.50;;;26.60;43.40;;;;;;5078345;28;20459;-81
2024/01/28 12:44:25;;;;;;;2.80;1.70;;;26.50;44.90;;;;;;5075911;28;20505;-82
2024/01/28 12:46:53;;;;;;;2.67;1.40;;;25.50;42.70;;;;;;5075269;28;20491;-82
2024/01/28 12:49:20;;;;;;;2.60;1.07;;;25.00;43.20;;;;;;5079749;28;20533;-82
2024/01/28 12:51:47;;;;;;;3.07;1.70;;;24.50;44.60;;;;;;5074655;28;20546;-82
2024/01/28 12:54:14;;;;;;;2.70;1.57;;;23.20;46.20;;;;;;5078950;28;20535;-81
2024/01/28 12:56:41;;;;;;;4.10;1.63;;;22.00;45.70;;;;;;5089530;28;20509;-82